Time;durP1;ratioP1;P1;durP2;ratioP2;P2;SDS_P1;SDS_P2;PMS_P1;PMS_P2;Temp;Humidity;BMP_temperature;BMP_pressure;BME280_temperature;BME280_humidity;BME280_pressure;Samples;Min_cycle;Max_cycle;Signal;HPM_P1;HPM_P2
2022/07/19 00:00:52;;;;;;;4.35;2.35;;;;;;;;;;5128111;27;20047;-72
2022/07/19 00:03:22;;;;;;;4.28;2.55;;;;;;;;;;5127338;27;20058;-72
2022/07/19 00:05:51;;;;;;;3.20;2.03;;;;;;;;;;5127060;27;20410;-72
2022/07/19 00:08:21;;;;;;;5.03;2.38;;;;;;;;;;5127840;27;20047;-71
2022/07/19 00:10:52;;;;;;;3.70;2.33;;;;;;;;;;5127514;27;20051;-72
2022/07/19 00:13:24;;;;;;;5.45;2.63;;;;;;;;;;5127509;27;20062;-72
2022/07/19 00:15:55;;;;;;;3.40;2.00;;;;;;;;;;5127725;27;20066;-72
2022/07/19 00:18:24;;;;;;;;;;;;;;;;;;5127683;27;20062;-72
2022/07/19 00:20:54;;;;;;;6.18;2.42;;;;;;;;;;5127518;27;19931;-72
2022/07/19 00:23:24;;;;;;;6.72;2.95;;;;;;;;;;5127637;27;20489;-73
2022/07/19 00:25:53;;;;;;;5.60;3.13;;;;;;;;;;5127720;27;20047;-71
2022/07/19 00:28:23;;;;;;;4.43;3.15;;;;;;;;;;5127964;27;20054;-72
2022/07/19 00:30:54;;;;;;;4.35;2.65;;;;;;;;;;5126865;27;20414;-72
2022/07/19 00:33:24;;;;;;;4.68;3.05;;;;;;;;;;5127417;27;20054;-72
2022/07/19 00:35:54;;;;;;;4.88;2.97;;;;;;;;;;5127121;27;20517;-72
2022/07/19 00:38:24;;;;;;;6.07;3.20;;;;;;;;;;5126855;27;20047;-72
2022/07/19 00:40:54;;;;;;;10.35;3.95;;;;;;;;;;5124781;27;20047;-71
2022/07/19 00:43:24;;;;;;;11.13;5.55;;;;;;;;;;5126102;28;20047;-73
2022/07/19 00:45:54;;;;;;;10.25;6.03;;;;;;;;;;5126721;28;20441;-72
2022/07/19 00:48:23;;;;;;;;;;;;;;;;;;5125386;28;20047;-72
2022/07/19 00:50:53;;;;;;;10.07;5.25;;;;;;;;;;5126796;28;19924;-72
2022/07/19 00:53:25;;;;;;;8.95;3.80;;;;;;;;;;5127512;28;20058;-72
2022/07/19 00:55:57;;;;;;;6.15;3.45;;;;;;;;;;5126915;28;20058;-71
2022/07/19 00:58:27;;;;;;;7.40;2.90;;;;;;;;;;5127170;28;20054;-72
2022/07/19 01:00:58;;;;;;;4.38;3.08;;;;;;;;;;5126971;28;20039;-71
2022/07/19 01:03:28;;;;;;;4.82;3.03;;;;;;;;;;5127028;28;20043;-71
2022/07/19 01:05:57;;;;;;;;;;;;;;;;;;5127492;28;20422;-72
2022/07/19 01:08:27;;;;;;;4.30;2.50;;;;;;;;;;5126860;27;20286;-72
2022/07/19 01:10:58;;;;;;;5.55;3.38;;;;;;;;;;5127490;28;20043;-72
2022/07/19 01:13:28;;;;;;;10.90;3.42;;;;;;;;;;5127099;28;20046;-72
2022/07/19 01:15:58;;;;;;;6.88;2.92;;;;;;;;;;5127237;28;20043;-71
2022/07/19 01:18:28;;;;;;;6.15;3.45;;;;;;;;;;5126536;28;20515;-71
2022/07/19 01:21:01;;;;;;;5.47;3.00;;;;;;;;;;5127161;28;20051;-72
2022/07/19 01:23:31;;;;;;;8.95;3.40;;;;;;;;;;5126358;28;20047;-71
2022/07/19 01:26:01;;;;;;;4.10;2.75;;;;;;;;;;5126253;27;20695;-72
2022/07/19 01:28:30;;;;;;;4.15;2.75;;;;;;;;;;5126193;28;20054;-72
2022/07/19 01:31:00;;;;;;;6.07;3.17;;;;;;;;;;5126592;28;20051;-74
2022/07/19 01:33:30;;;;;;;6.55;3.25;;;;;;;;;;5126455;28;20058;-70
2022/07/19 01:36:00;;;;;;;8.07;3.45;;;;;;;;;;5123961;28;20060;-71
2022/07/19 01:38:30;;;;;;;7.38;3.42;;;;;;;;;;5126961;28;20052;-71
2022/07/19 01:41:00;;;;;;;7.35;3.25;;;;;;;;;;5126828;28;20048;-71
2022/07/19 01:43:30;;;;;;;7.90;3.65;;;;;;;;;;5126724;28;20504;-71
2022/07/19 01:46:02;;;;;;;6.78;2.90;;;;;;;;;;5127022;28;20512;-71
2022/07/19 01:48:32;;;;;;;4.35;2.90;;;;;;;;;;5128208;27;20055;-71
2022/07/19 01:51:02;;;;;;;5.55;3.08;;;;;;;;;;5130169;27;20493;-72
2022/07/19 01:53:32;;;;;;;6.07;3.33;;;;;;;;;;5130705;27;20062;-71
2022/07/19 01:56:05;;;;;;;4.57;2.75;;;;;;;;;;5130492;27;20386;-71
2022/07/19 01:58:35;;;;;;;4.18;2.85;;;;;;;;;;5130412;27;20039;-71
2022/07/19 02:01:06;;;;;;;4.03;2.65;;;;;;;;;;5130485;27;20051;-72
2022/07/19 02:03:37;;;;;;;9.23;3.10;;;;;;;;;;5129799;27;20414;-71
2022/07/19 02:06:07;;;;;;;6.07;3.60;;;;;;;;;;5130784;27;20047;-71
2022/07/19 02:08:38;;;;;;;16.70;10.05;;;;;;;;;;5129712;27;20046;-71
2022/07/19 02:13:58;;;;;;;13.23;7.70;;;;;;;;;;5130328;27;20494;-72
2022/07/19 02:16:28;;;;;;;15.65;7.53;;;;;;;;;;5130778;27;20047;-71
2022/07/19 02:18:58;;;;;;;10.65;6.15;;;;;;;;;;5130222;27;20046;-71
2022/07/19 02:21:28;;;;;;;9.90;5.75;;;;;;;;;;5129962;27;20410;-71
2022/07/19 02:23:58;;;;;;;7.20;4.40;;;;;;;;;;5129868;27;20062;-71
2022/07/19 02:26:28;;;;;;;;;;;;;;;;;;5130773;27;20039;-72
2022/07/19 02:29:06;;;;;;;8.88;4.82;;;;;;;;;;5129382;27;19923;-70
2022/07/19 02:31:35;;;;;;;14.65;5.57;;;;;;;;;;5129786;27;20524;-71
2022/07/19 02:34:06;;;;;;;11.55;5.97;;;;;;;;;;5130013;27;20505;-71
2022/07/19 02:36:35;;;;;;;10.15;6.18;;;;;;;;;;5128932;27;20487;-70
2022/07/19 02:39:05;;;;;;;13.50;8.07;;;;;;;;;;5129752;27;20046;-71
2022/07/19 02:41:35;;;;;;;14.23;7.57;;;;;;;;;;5129535;27;20062;-71
2022/07/19 02:44:05;;;;;;;15.88;9.00;;;;;;;;;;5129894;27;20051;-71
2022/07/19 02:46:34;;;;;;;;;;;;;;;;;;5130382;27;20059;-71
2022/07/19 02:49:04;;;;;;;13.82;7.95;;;;;;;;;;5128517;27;19923;-72
2022/07/19 02:51:34;;;;;;;14.60;8.55;;;;;;;;;;5128711;27;20051;-71
2022/07/19 02:54:05;;;;;;;15.60;8.48;;;;;;;;;;5129057;27;20043;-71
2022/07/19 02:56:37;;;;;;;11.43;6.93;;;;;;;;;;5129167;27;20043;-71
2022/07/19 02:59:08;;;;;;;11.80;6.50;;;;;;;;;;5129057;27;20498;-71
2022/07/19 03:01:38;;;;;;;11.90;7.15;;;;;;;;;;5129397;27;20387;-71
2022/07/19 03:04:09;;;;;;;11.32;6.68;;;;;;;;;;5129938;27;20046;-70
2022/07/19 03:06:39;;;;;;;13.57;6.18;;;;;;;;;;5129341;27;20047;-71
2022/07/19 03:09:09;;;;;;;13.38;6.70;;;;;;;;;;5129228;27;20050;-71
2022/07/19 03:11:38;;;;;;;9.50;6.00;;;;;;;;;;5128922;27;20047;-71
2022/07/19 03:14:09;;;;;;;7.95;4.97;;;;;;;;;;5128896;27;20410;-71
2022/07/19 03:16:39;;;;;;;;;;;;;;;;;;5128958;27;20046;-71
2022/07/19 03:19:08;;;;;;;9.27;5.45;;;;;;;;;;5128523;27;19923;-71
2022/07/19 03:21:39;;;;;;;8.18;5.20;;;;;;;;;;5129051;27;20054;-71
2022/07/19 03:24:09;;;;;;;9.82;5.80;;;;;;;;;;5128452;27;20058;-71
2022/07/19 03:26:39;;;;;;;9.82;5.90;;;;;;;;;;5127657;27;20059;-71
2022/07/19 03:29:10;;;;;;;11.57;5.38;;;;;;;;;;5128200;27;20043;-72
2022/07/19 03:31:40;;;;;;;9.10;5.70;;;;;;;;;;5127799;27;20043;-72
2022/07/19 03:34:10;;;;;;;12.35;5.60;;;;;;;;;;5127431;27;20035;-72
2022/07/19 03:36:40;;;;;;;;;;;;;;;;;;5129049;27;20051;-72
2022/07/19 03:39:09;;;;;;;12.82;6.18;;;;;;;;;;5128473;27;20308;-72
2022/07/19 03:41:39;;;;;;;18.80;7.80;;;;;;;;;;5128208;27;20051;-71
2022/07/19 03:44:09;;;;;;;23.38;8.73;;;;;;;;;;5128497;27;20414;-71
2022/07/19 03:46:39;;;;;;;24.13;9.82;;;;;;;;;;5127965;27;20062;-71
2022/07/19 03:49:08;;;;;;;;;;;;;;;;;;5128706;27;20039;-71
2022/07/19 03:52:13;;;;;;;16.83;7.32;;;;;;;;;;5134031;27;19919;-72
2022/07/19 03:54:46;;;;;;;11.20;4.18;;;;;;;;;;5128488;27;20063;-72
2022/07/19 03:57:16;;;;;;;8.73;3.88;;;;;;;;;;5128787;27;20494;-72
2022/07/19 03:59:46;;;;;;;6.85;4.28;;;;;;;;;;5126505;27;20053;-71
2022/07/19 04:02:16;;;;;;;6.05;4.28;;;;;;;;;;5127560;27;20393;-71
2022/07/19 04:04:46;;;;;;;8.00;4.03;;;;;;;;;;5127748;27;20066;-72
2022/07/19 04:07:16;;;;;;;9.55;3.78;;;;;;;;;;5128094;27;20058;-71
2022/07/19 04:09:45;;;;;;;8.52;4.00;;;;;;;;;;5128061;27;20470;-72
2022/07/19 04:12:15;;;;;;;6.10;3.60;;;;;;;;;;5127789;27;20039;-71
2022/07/19 04:14:45;;;;;;;8.02;3.92;;;;;;;;;;5127623;27;20104;-72
2022/07/19 04:17:15;;;;;;;8.60;3.55;;;;;;;;;;5127694;27;20050;-72
2022/07/19 04:19:44;;;;;;;5.72;3.67;;;;;;;;;;5128036;27;20054;-72
2022/07/19 04:22:14;;;;;;;6.82;4.18;;;;;;;;;;5128173;27;20047;-72
2022/07/19 04:24:44;;;;;;;5.90;3.72;;;;;;;;;;5128220;27;20077;-71
2022/07/19 04:27:14;;;;;;;6.97;4.50;;;;;;;;;;5128146;27;20050;-71
2022/07/19 04:29:44;;;;;;;9.52;4.75;;;;;;;;;;5126787;27;20055;-71
2022/07/19 04:32:13;;;;;;;;;;;;;;;;;;5128571;27;20040;-72
2022/07/19 04:34:49;;;;;;;5.57;4.03;;;;;;;;;;5127341;27;19924;-72
2022/07/19 04:37:19;;;;;;;6.03;4.35;;;;;;;;;;5127620;27;20429;-71
2022/07/19 04:39:48;;;;;;;10.90;4.90;;;;;;;;;;5127290;27;20533;-71
2022/07/19 04:42:18;;;;;;;8.85;4.90;;;;;;;;;;5127297;27;20042;-71
2022/07/19 04:44:48;;;;;;;12.02;6.15;;;;;;;;;;5127706;28;20047;-71
2022/07/19 04:47:18;;;;;;;7.53;4.97;;;;;;;;;;5127938;28;20039;-72
2022/07/19 04:49:48;;;;;;;10.05;5.60;;;;;;;;;;5127423;28;20043;-71
2022/07/19 04:52:18;;;;;;;6.93;4.70;;;;;;;;;;5126786;28;20043;-72
2022/07/19 04:54:47;;;;;;;;;;;;;;;;;;5128681;28;20050;-72
2022/07/19 04:57:17;;;;;;;11.10;5.20;;;;;;;;;;5127663;28;20313;-71
2022/07/19 04:59:47;;;;;;;14.95;5.90;;;;;;;;;;5109271;28;20059;-71
2022/07/19 05:02:17;;;;;;;10.23;6.00;;;;;;;;;;5127356;28;20055;-71
2022/07/19 05:04:47;;;;;;;;;;;;;;;;;;5127743;28;20051;-71
2022/07/19 05:07:17;;;;;;;11.02;5.38;;;;;;;;;;5127646;28;19923;-72
2022/07/19 05:09:46;;;;;;;9.18;5.15;;;;;;;;;;5127213;28;20047;-71
2022/07/19 05:12:16;;;;;;;10.98;6.25;;;;;;;;;;5127212;28;20502;-71
2022/07/19 05:14:46;;;;;;;10.20;6.20;;;;;;;;;;5126548;28;20682;-72
2022/07/19 05:17:16;;;;;;;13.13;6.45;;;;;;;;;;5126129;27;20066;-71
2022/07/19 05:19:46;;;;;;;10.85;6.28;;;;;;;;;;5127436;28;20046;-71
2022/07/19 05:22:17;;;;;;;12.27;6.47;;;;;;;;;;5126854;27;20043;-71
2022/07/19 05:24:46;;;;;;;13.00;6.20;;;;;;;;;;5130659;27;20047;-71
2022/07/19 05:27:16;;;;;;;12.43;6.30;;;;;;;;;;5131346;27;20047;-71
2022/07/19 05:29:46;;;;;;;12.13;6.70;;;;;;;;;;5130728;27;20114;-71
2022/07/19 05:32:17;;;;;;;14.48;7.00;;;;;;;;;;5131030;27;20502;-71
2022/07/19 05:34:47;;;;;;;10.35;6.32;;;;;;;;;;5131267;27;20043;-71
2022/07/19 05:37:16;;;;;;;13.63;7.13;;;;;;;;;;5129664;27;20051;-71
2022/07/19 05:39:46;;;;;;;12.27;6.65;;;;;;;;;;5131088;27;20068;-71
2022/07/19 05:42:16;;;;;;;10.32;6.72;;;;;;;;;;5131315;27;20113;-71
2022/07/19 05:44:46;;;;;;;12.30;6.35;;;;;;;;;;5130846;27;20490;-71
2022/07/19 05:47:17;;;;;;;9.63;6.78;;;;;;;;;;5131135;27;20521;-71
2022/07/19 05:49:48;;;;;;;10.77;6.72;;;;;;;;;;5129291;27;20533;-71
2022/07/19 05:52:18;;;;;;;11.20;6.88;;;;;;;;;;5130368;27;20035;-71
2022/07/19 05:54:53;;;;;;;;;;;;;;;;;;5131022;27;20051;-71
2022/07/19 05:57:23;;;;;;;10.73;7.15;;;;;;;;;;5130838;27;20290;-71
2022/07/19 05:59:53;;;;;;;13.55;7.13;;;;;;;;;;5130491;27;20054;-71
2022/07/19 06:02:24;;;;;;;10.02;6.45;;;;;;;;;;5130509;27;20058;-71
2022/07/19 06:04:53;;;;;;;12.15;6.35;;;;;;;;;;5130072;27;20055;-71
2022/07/19 06:07:23;;;;;;;12.55;6.32;;;;;;;;;;5130602;27;20055;-72
2022/07/19 06:09:53;;;;;;;15.35;8.88;;;;;;;;;;5130687;27;20047;-72
2022/07/19 06:12:24;;;;;;;16.95;9.63;;;;;;;;;;5130739;27;20417;-71
2022/07/19 06:14:53;;;;;;;21.38;10.88;;;;;;;;;;5130395;27;20058;-71
2022/07/19 06:17:23;;;;;;;15.90;8.95;;;;;;;;;;5130668;27;20058;-71
2022/07/19 06:19:53;;;;;;;15.65;10.38;;;;;;;;;;5130414;27;20497;-71
2022/07/19 06:22:23;;;;;;;18.13;10.23;;;;;;;;;;5130605;27;20046;-72
2022/07/19 06:24:52;;;;;;;20.58;10.02;;;;;;;;;;5130241;27;20078;-72
2022/07/19 06:27:22;;;;;;;17.27;11.68;;;;;;;;;;5129973;27;20047;-71
2022/07/19 06:29:52;;;;;;;13.50;9.02;;;;;;;;;;5129840;27;20129;-71
2022/07/19 06:32:22;;;;;;;15.23;8.98;;;;;;;;;;5130011;27;20051;-72
2022/07/19 06:34:51;;;;;;;;;;;;;;;;;;5130208;27;20671;-71
2022/07/19 06:37:21;;;;;;;13.98;8.43;;;;;;;;;;5128706;27;19919;-72
2022/07/19 06:39:51;;;;;;;14.30;10.15;;;;;;;;;;5130037;27;20035;-71
2022/07/19 06:42:21;;;;;;;18.00;9.65;;;;;;;;;;5128507;27;20051;-71
2022/07/19 06:44:51;;;;;;;13.52;9.90;;;;;;;;;;5129361;27;20047;-72
2022/07/19 06:47:21;;;;;;;12.98;7.38;;;;;;;;;;5129732;27;20676;-72
2022/07/19 06:49:50;;;;;;;14.18;7.00;;;;;;;;;;5129680;27;20050;-72
2022/07/19 06:52:37;;;;;;;11.93;6.97;;;;;;;;;;5129571;27;20677;-72
2022/07/19 06:55:07;;;;;;;10.60;7.30;;;;;;;;;;5129930;27;20525;-72
2022/07/19 06:57:37;;;;;;;10.48;6.82;;;;;;;;;;5129457;27;20723;-72
2022/07/19 07:00:09;;;;;;;15.07;7.95;;;;;;;;;;5129573;27;20050;-73
2022/07/19 07:02:40;;;;;;;14.32;7.28;;;;;;;;;;5128941;27;20406;-72
2022/07/19 07:05:11;;;;;;;19.17;7.32;;;;;;;;;;5129181;27;20543;-72
2022/07/19 07:07:41;;;;;;;21.15;8.23;;;;;;;;;;5129066;27;20498;-72
2022/07/19 07:10:12;;;;;;;19.88;7.78;;;;;;;;;;5128929;27;20414;-72
2022/07/19 07:12:41;;;;;;;;;;;;;;;;;;5129757;27;20054;-72
2022/07/19 07:15:11;;;;;;;23.70;7.38;;;;;;;;;;5129737;27;19920;-72
2022/07/19 07:17:42;;;;;;;19.58;8.45;;;;;;;;;;5129256;27;20051;-72
2022/07/19 07:20:12;;;;;;;18.33;8.85;;;;;;;;;;5127321;27;20413;-72
2022/07/19 07:22:42;;;;;;;15.07;8.80;;;;;;;;;;5128889;27;20035;-72
2022/07/19 07:25:12;;;;;;;16.33;9.27;;;;;;;;;;5129612;27;20062;-72
2022/07/19 07:27:44;;;;;;;16.70;9.27;;;;;;;;;;5128225;27;20054;-72
2022/07/19 07:30:13;;;;;;;;;;;;;;;;;;5129004;27;20051;-71
2022/07/19 07:32:43;;;;;;;15.95;8.73;;;;;;;;;;5127050;27;19930;-72
2022/07/19 07:35:13;;;;;;;19.15;9.23;;;;;;;;;;5129010;27;20050;-71
2022/07/19 07:37:43;;;;;;;16.05;9.10;;;;;;;;;;5127290;27;20050;-71
2022/07/19 07:40:12;;;;;;;16.52;8.77;;;;;;;;;;5128310;27;20047;-71
2022/07/19 07:42:42;;;;;;;;;;;;;;;;;;5129457;27;20043;-71
2022/07/19 07:45:12;;;;;;;15.75;8.55;;;;;;;;;;5127048;27;19923;-71
2022/07/19 07:47:41;;;;;;;;;;;;;;;;;;5128189;27;20046;-72
2022/07/19 07:50:11;;;;;;;18.50;8.68;;;;;;;;;;5128701;27;20366;-72
2022/07/19 07:52:41;;;;;;;18.83;8.82;;;;;;;;;;5128315;27;20058;-71
2022/07/19 07:55:11;;;;;;;;;;;;;;;;;;5128973;27;20043;-71
2022/07/19 07:58:01;;;;;;;17.10;7.55;;;;;;;;;;5128756;27;19923;-71
2022/07/19 08:00:31;;;;;;;21.95;8.25;;;;;;;;;;5128499;27;20054;-71
2022/07/19 08:03:01;;;;;;;18.63;8.13;;;;;;;;;;5127804;27;20051;-72
2022/07/19 08:05:32;;;;;;;14.73;8.63;;;;;;;;;;5125531;27;20055;-71
2022/07/19 08:08:02;;;;;;;20.75;9.05;;;;;;;;;;5127908;27;20054;-72
2022/07/19 08:10:35;;;;;;;21.45;8.25;;;;;;;;;;5128231;27;20047;-72
2022/07/19 08:13:06;;;;;;;23.65;8.88;;;;;;;;;;5127957;27;20043;-72
2022/07/19 08:15:37;;;;;;;22.70;9.75;;;;;;;;;;5127835;27;20054;-72
2022/07/19 08:18:07;;;;;;;19.08;8.95;;;;;;;;;;5128932;27;20043;-72
2022/07/19 08:20:38;;;;;;;20.85;9.23;;;;;;;;;;5127876;27;20051;-71
2022/07/19 08:23:07;;;;;;;21.65;8.60;;;;;;;;;;5126246;27;20043;-72
2022/07/19 08:25:37;;;;;;;23.95;8.25;;;;;;;;;;5127759;27;20035;-71
2022/07/19 08:28:07;;;;;;;20.73;8.18;;;;;;;;;;5127266;27;20050;-71
2022/07/19 08:30:38;;;;;;;21.98;8.57;;;;;;;;;;5126304;27;20760;-71
2022/07/19 08:33:28;;;;;;;22.48;8.65;;;;;;;;;;5126357;27;20043;-72
2022/07/19 08:35:59;;;;;;;20.95;8.18;;;;;;;;;;5127850;27;20529;-72
2022/07/19 08:38:29;;;;;;;24.50;9.07;;;;;;;;;;5127951;27;20414;-71
2022/07/19 08:41:02;;;;;;;21.90;8.40;;;;;;;;;;5127513;27;20050;-72
2022/07/19 08:43:32;;;;;;;25.58;9.25;;;;;;;;;;5127961;27;20043;-72
2022/07/19 08:46:04;;;;;;;26.00;8.90;;;;;;;;;;5127436;28;20161;-72
2022/07/19 08:48:36;;;;;;;18.83;8.60;;;;;;;;;;5127396;28;20050;-72
2022/07/19 08:51:19;;;;;;;21.67;8.27;;;;;;;;;;5127303;28;20528;-72
2022/07/19 08:53:50;;;;;;;17.63;8.30;;;;;;;;;;5127174;28;20054;-71
2022/07/19 08:59:10;;;;;;;26.55;9.50;;;;;;;;;;5131619;27;20050;-72
2022/07/19 09:01:40;;;;;;;;;;;;;;;;;;5131728;27;20413;-72
2022/07/19 09:04:18;;;;;;;30.27;7.07;;;;;;;;;;5131533;27;19930;-72
2022/07/19 09:06:50;;;;;;;22.58;8.35;;;;;;;;;;5131543;27;20058;-72
2022/07/19 09:09:26;;;;;;;23.27;9.45;;;;;;;;;;5132182;27;20043;-72
2022/07/19 09:11:58;;;;;;;20.33;8.48;;;;;;;;;;5131156;27;20054;-72
2022/07/19 09:14:32;;;;;;;23.30;9.88;;;;;;;;;;5131448;27;20043;-72
2022/07/19 09:17:06;;;;;;;18.63;7.93;;;;;;;;;;5131674;27;20075;-71
2022/07/19 09:19:40;;;;;;;24.10;9.18;;;;;;;;;;5131503;27;20046;-73
2022/07/19 09:22:15;;;;;;;24.88;9.52;;;;;;;;;;5131683;27;20047;-72
2022/07/19 09:24:49;;;;;;;21.25;9.13;;;;;;;;;;5131291;27;20063;-71
2022/07/19 09:27:25;;;;;;;23.67;8.73;;;;;;;;;;5131523;27;20106;-71
2022/07/19 09:29:57;;;;;;;18.85;7.90;;;;;;;;;;5130791;27;20054;-72
2022/07/19 09:32:27;;;;;;;22.38;11.05;;;;;;;;;;5131295;27;20035;-72
2022/07/19 09:35:01;;;;;;;22.88;10.90;;;;;;;;;;5131810;27;20047;-72
2022/07/19 09:37:34;;;;;;;23.40;10.73;;;;;;;;;;5131167;27;20046;-72
2022/07/19 09:40:08;;;;;;;21.88;10.88;;;;;;;;;;5130438;27;20058;-72
2022/07/19 09:42:43;;;;;;;24.33;10.68;;;;;;;;;;5129313;27;20051;-72
2022/07/19 09:45:17;;;;;;;26.65;10.40;;;;;;;;;;5131201;27;20047;-72
2022/07/19 09:47:49;;;;;;;26.17;14.38;;;;;;;;;;5130450;27;20524;-72
2022/07/19 09:50:21;;;;;;;30.73;14.18;;;;;;;;;;5130087;27;20054;-72
2022/07/19 09:52:53;;;;;;;26.48;10.00;;;;;;;;;;5130690;27;20039;-73
2022/07/19 09:55:24;;;;;;;24.05;8.88;;;;;;;;;;5131308;27;20043;-72
2022/07/19 09:57:57;;;;;;;26.17;9.68;;;;;;;;;;5130405;27;20478;-72
2022/07/19 10:00:27;;;;;;;28.00;10.50;;;;;;;;;;5130947;27;20039;-72
2022/07/19 10:02:59;;;;;;;;;;;;;;;;;;5130818;27;20043;-72
2022/07/19 10:05:30;;;;;;;24.13;9.95;;;;;;;;;;5130268;27;19919;-73
2022/07/19 10:08:01;;;;;;;29.85;11.20;;;;;;;;;;5130533;27;20047;-72
2022/07/19 10:10:31;;;;;;;28.02;11.82;;;;;;;;;;5130111;27;20051;-72
2022/07/19 10:13:03;;;;;;;29.40;11.80;;;;;;;;;;5130055;27;20043;-72
2022/07/19 10:15:41;;;;;;;27.00;12.05;;;;;;;;;;5130328;27;20047;-72
2022/07/19 10:18:16;;;;;;;24.83;11.55;;;;;;;;;;5130281;27;20046;-72
2022/07/19 10:20:47;;;;;;;31.45;13.13;;;;;;;;;;5130282;27;20043;-73
2022/07/19 10:23:27;;;;;;;31.67;12.07;;;;;;;;;;5130457;27;20043;-71
2022/07/19 10:25:57;;;;;;;32.67;13.35;;;;;;;;;;5130129;27;20046;-72
2022/07/19 10:28:36;;;;;;;32.42;11.43;;;;;;;;;;5129919;27;20062;-72
2022/07/19 10:31:30;;;;;;;36.80;18.95;;;;;;;;;;5128378;27;20513;-75
2022/07/19 10:34:04;;;;;;;32.00;13.63;;;;;;;;;;5129766;27;20066;-72
2022/07/19 10:36:39;;;;;;;36.75;13.15;;;;;;;;;;5129676;27;20062;-72
2022/07/19 10:39:19;;;;;;;36.40;14.25;;;;;;;;;;5129884;27;20046;-71
2022/07/19 10:42:17;;;;;;;35.30;13.80;;;;;;;;;;5129868;27;20050;-72
2022/07/19 10:44:59;;;;;;;33.17;14.25;;;;;;;;;;5126918;27;20051;-72
2022/07/19 10:47:37;;;;;;;30.35;13.30;;;;;;;;;;5128082;27;20043;-72
2022/07/19 10:50:09;;;;;;;30.55;12.90;;;;;;;;;;5129679;27;20051;-72
2022/07/19 10:52:39;;;;;;;30.27;13.20;;;;;;;;;;5129670;27;20520;-71
2022/07/19 10:55:20;;;;;;;41.17;15.55;;;;;;;;;;5129625;27;20047;-72
2022/07/19 10:57:52;;;;;;;31.70;12.70;;;;;;;;;;5129603;27;20848;-72
2022/07/19 11:00:27;;;;;;;25.60;12.57;;;;;;;;;;5129141;27;20070;-72
2022/07/19 11:03:16;;;;;;;;;;;;;;;;;;5130359;27;20051;-72
2022/07/19 11:05:52;;;;;;;25.50;12.07;;;;;;;;;;5129626;27;19923;-73
2022/07/19 11:08:33;;;;;;;25.35;11.15;;;;;;;;;;5129269;27;20062;-76
2022/07/19 11:11:12;;;;;;;28.30;12.68;;;;;;;;;;5130161;27;20047;-72
2022/07/19 11:13:48;;;;;;;31.92;13.30;;;;;;;;;;5129645;27;20070;-74
2022/07/19 11:16:19;;;;;;;26.02;12.00;;;;;;;;;;5129074;27;20051;-71
2022/07/19 11:18:50;;;;;;;28.90;13.60;;;;;;;;;;5128643;27;20035;-70
2022/07/19 11:21:21;;;;;;;25.83;11.65;;;;;;;;;;5129142;27;20043;-70
2022/07/19 11:23:52;;;;;;;30.52;14.07;;;;;;;;;;5128870;27;20043;-74
2022/07/19 11:26:22;;;;;;;29.05;12.20;;;;;;;;;;5128388;27;20065;-72
2022/07/19 11:28:54;;;;;;;23.55;12.45;;;;;;;;;;5126812;27;20587;-72
2022/07/19 11:31:25;;;;;;;28.60;12.93;;;;;;;;;;5127104;27;20049;-73
2022/07/19 11:33:57;;;;;;;27.17;12.00;;;;;;;;;;5127772;27;20058;-73
2022/07/19 11:36:28;;;;;;;26.95;12.88;;;;;;;;;;5127369;27;20051;-72
2022/07/19 11:38:59;;;;;;;24.25;12.13;;;;;;;;;;5127139;27;20809;-71
2022/07/19 11:41:31;;;;;;;32.33;12.55;;;;;;;;;;5127714;27;20058;-72
2022/07/19 11:44:09;;;;;;;24.27;12.18;;;;;;;;;;5128906;27;20054;-71
2022/07/19 11:46:41;;;;;;;30.90;14.63;;;;;;;;;;5128284;27;20047;-72
2022/07/19 11:49:15;;;;;;;25.08;11.52;;;;;;;;;;5128082;27;20047;-72
2022/07/19 11:51:45;;;;;;;37.58;14.15;;;;;;;;;;5128638;27;20035;-71
2022/07/19 11:54:14;;;;;;;;;;;;;;;;;;5129140;27;20513;-72
2022/07/19 11:56:44;;;;;;;21.20;11.20;;;;;;;;;;5128150;27;19923;-72
2022/07/19 11:59:16;;;;;;;29.77;14.02;;;;;;;;;;5128286;27;20062;-72
2022/07/19 12:01:46;;;;;;;28.55;11.77;;;;;;;;;;5128110;27;20047;-73
2022/07/19 12:04:17;;;;;;;24.15;11.98;;;;;;;;;;5128135;27;20040;-72
2022/07/19 12:06:51;;;;;;;22.13;11.10;;;;;;;;;;5128125;27;20047;-72
2022/07/19 12:09:27;;;;;;;23.85;11.70;;;;;;;;;;5127733;27;20039;-72
2022/07/19 12:11:58;;;;;;;27.88;12.10;;;;;;;;;;5128654;27;20043;-73
2022/07/19 12:14:37;;;;;;;29.77;11.68;;;;;;;;;;5128217;27;20047;-72
2022/07/19 12:17:15;;;;;;;30.52;13.23;;;;;;;;;;5127530;27;20128;-71
2022/07/19 12:20:08;;;;;;;29.58;11.75;;;;;;;;;;5128923;27;20051;-72
2022/07/19 12:23:18;;;;;;;25.50;12.20;;;;;;;;;;5127863;27;20047;-72
2022/07/19 12:25:49;;;;;;;26.30;12.32;;;;;;;;;;5127938;27;20047;-72
2022/07/19 12:28:26;;;;;;;21.10;10.93;;;;;;;;;;5127648;27;20398;-71
2022/07/19 12:31:05;;;;;;;30.42;12.25;;;;;;;;;;5127403;27;20039;-72
2022/07/19 12:33:38;;;;;;;25.52;11.05;;;;;;;;;;5127668;27;20047;-73
2022/07/19 12:36:08;;;;;;;25.48;11.45;;;;;;;;;;5127540;27;20506;-72
2022/07/19 12:38:38;;;;;;;;;;;;;;;;;;5129129;27;20058;-72
2022/07/19 12:41:09;;;;;;;23.02;12.02;;;;;;;;;;5127194;27;20321;-72
2022/07/19 12:43:39;;;;;;;23.77;11.60;;;;;;;;;;5127926;27;20050;-72
2022/07/19 12:46:08;;;;;;;;;;;;;;;;;;5128113;27;20055;-72
2022/07/19 12:48:38;;;;;;;27.02;11.25;;;;;;;;;;5126170;28;19923;-72
2022/07/19 12:51:07;;;;;;;;;;;;;;;;;;5127930;28;20047;-72
2022/07/19 12:53:37;;;;;;;21.17;10.55;;;;;;;;;;5127186;28;19934;-72
2022/07/19 12:56:07;;;;;;;21.55;11.48;;;;;;;;;;5127393;28;20047;-71
2022/07/19 13:01:25;;;;;;;;;;;;;;;;;;5128664;28;20051;-72
2022/07/19 13:03:55;;;;;;;16.77;9.88;;;;;;;;;;5128342;28;19926;-72
2022/07/19 13:06:25;;;;;;;15.82;7.60;;;;;;;;;;5126671;28;20043;-71
2022/07/19 13:08:54;;;;;;;15.20;8.20;;;;;;;;;;5127144;27;20062;-72
2022/07/19 13:11:26;;;;;;;;;;;;;;;;;;5127529;27;20425;-72
2022/07/19 13:13:56;;;;;;;13.50;9.27;;;;;;;;;;5127662;28;19919;-72
2022/07/19 13:16:26;;;;;;;15.57;9.13;;;;;;;;;;5126946;28;20047;-72
2022/07/19 13:18:59;;;;;;;16.65;9.60;;;;;;;;;;5127513;28;20050;-72
2022/07/19 13:21:29;;;;;;;14.45;9.10;;;;;;;;;;5127367;27;20122;-72
2022/07/19 13:23:59;;;;;;;24.23;10.38;;;;;;;;;;5127547;28;20055;-72
2022/07/19 13:26:39;;;;;;;20.15;9.10;;;;;;;;;;5126724;28;20047;-71
2022/07/19 13:29:09;;;;;;;16.75;8.85;;;;;;;;;;5127247;28;20051;-71
2022/07/19 13:31:39;;;;;;;;;;;;;;;;;;5128665;28;20517;-72
2022/07/19 13:34:09;;;;;;;16.50;9.57;;;;;;;;;;5127151;28;19923;-73
2022/07/19 13:36:42;;;;;;;18.02;8.77;;;;;;;;;;5127045;28;20051;-74
2022/07/19 13:39:12;;;;;;;20.30;9.77;;;;;;;;;;5126967;28;20051;-72
2022/07/19 13:41:42;;;;;;;;;;;;;;;;;;5128267;28;20054;-71
2022/07/19 13:44:19;;;;;;;15.40;8.45;;;;;;;;;;5126694;27;20722;-71
2022/07/19 13:46:48;;;;;;;;;;;;;;;;;;5131597;27;20058;-72
2022/07/19 13:49:18;;;;;;;11.77;8.25;;;;;;;;;;5130884;27;19931;-72
2022/07/19 13:51:48;;;;;;;16.90;9.48;;;;;;;;;;5130147;27;20062;-72
2022/07/19 13:54:18;;;;;;;16.58;9.90;;;;;;;;;;5129307;27;20047;-72
2022/07/19 13:56:48;;;;;;;19.77;10.30;;;;;;;;;;5130393;27;20043;-72
2022/07/19 13:59:18;;;;;;;17.45;8.82;;;;;;;;;;5131127;27;20066;-72
2022/07/19 14:01:48;;;;;;;12.05;8.32;;;;;;;;;;5130789;27;20039;-73
2022/07/19 14:04:20;;;;;;;16.60;8.07;;;;;;;;;;5130435;27;20402;-73
2022/07/19 14:06:51;;;;;;;17.27;7.90;;;;;;;;;;5130619;27;20505;-74
2022/07/19 14:09:21;;;;;;;13.40;6.38;;;;;;;;;;5130409;27;20053;-72
2022/07/19 14:11:50;;;;;;;;;;;;;;;;;;5130979;27;20379;-71
2022/07/19 14:14:20;;;;;;;13.02;7.28;;;;;;;;;;5129151;27;19927;-77
2022/07/19 14:16:50;;;;;;;14.13;7.30;;;;;;;;;;5130259;27;20047;-71
2022/07/19 14:19:20;;;;;;;10.32;7.30;;;;;;;;;;5130460;27;20047;-72
2022/07/19 14:21:49;;;;;;;;;;;;;;;;;;5113073;27;20047;-72
2022/07/19 14:24:19;;;;;;;11.93;6.68;;;;;;;;;;5131062;27;19930;-72
2022/07/19 14:26:49;;;;;;;;;;;;;;;;;;5130514;27;20057;-73
2022/07/19 14:29:19;;;;;;;10.35;6.65;;;;;;;;;;5129762;27;19934;-75
2022/07/19 14:31:48;;;;;;;;;;;;;;;;;;5130910;27;20054;-73
2022/07/19 14:34:18;;;;;;;10.20;5.53;;;;;;;;;;5130144;27;19923;-71
2022/07/19 14:37:06;;;;;;;12.45;5.82;;;;;;;;;;5130127;27;20043;-72
2022/07/19 14:39:37;;;;;;;10.43;5.47;;;;;;;;;;5129734;27;20498;-72
2022/07/19 14:42:07;;;;;;;9.43;5.13;;;;;;;;;;5129533;27;20058;-72
2022/07/19 14:44:37;;;;;;;11.57;6.22;;;;;;;;;;5129175;27;20054;-72
2022/07/19 14:47:08;;;;;;;11.20;5.22;;;;;;;;;;5129835;27;20058;-75
2022/07/19 14:49:39;;;;;;;8.27;4.63;;;;;;;;;;5129664;27;20043;-72
2022/07/19 14:52:09;;;;;;;10.23;5.35;;;;;;;;;;5130392;27;20110;-72
2022/07/19 14:54:38;;;;;;;17.40;5.57;;;;;;;;;;5129362;27;20414;-71
2022/07/19 14:57:09;;;;;;;11.27;5.63;;;;;;;;;;5129230;27;20043;-72
2022/07/19 14:59:39;;;;;;;10.13;4.65;;;;;;;;;;5129556;27;20046;-73
2022/07/19 15:02:18;;;;;;;7.82;3.95;;;;;;;;;;5129629;27;20409;-73
2022/07/19 15:04:48;;;;;;;9.38;4.68;;;;;;;;;;5128780;27;20039;-72
2022/07/19 15:07:18;;;;;;;6.90;4.30;;;;;;;;;;5129635;27;20064;-73
2022/07/19 15:09:48;;;;;;;6.88;3.30;;;;;;;;;;5129169;27;20039;-73
2022/07/19 15:12:18;;;;;;;;;;;;;;;;;;5130090;27;20398;-72
2022/07/19 15:14:47;;;;;;;6.95;3.90;;;;;;;;;;5129303;27;19919;-72